createdAt,value
2023-04-20T00:00:43.343Z,63621.71
2023-04-20T00:01:46.475Z,63646.16
2023-04-20T00:02:48.492Z,63634.09
2023-04-20T00:03:50.704Z,63638.49
2023-04-20T00:04:55.877Z,63644.95
2023-04-20T00:05:58.487Z,63614.35
2023-04-20T00:07:00.604Z,63616.77
2023-04-20T00:08:03.096Z,63624.11
2023-04-20T00:09:05.102Z,63626.19
2023-04-20T00:10:08.684Z,63631.36
2023-04-20T00:11:11.771Z,63623.13
2023-04-20T00:12:13.841Z,63636.84
2023-04-20T00:13:15.698Z,63643.97
2023-04-20T00:14:18.220Z,63629.28
2023-04-20T00:15:20.878Z,63622.15
2023-04-20T00:16:25.891Z,63627.94
2023-04-20T00:17:28.244Z,63632.34
2023-04-20T00:18:30.203Z,63634.09
2023-04-20T00:19:32.206Z,63635.63
2023-04-20T00:20:34.436Z,63640.45
2023-04-20T00:21:38.058Z,63637.38
2023-04-20T00:22:40.511Z,63633.55
2023-04-20T00:23:42.551Z,63633.78
2023-04-20T00:24:44.520Z,63627.50
2023-04-20T00:25:46.623Z,63635.51
2023-04-20T00:26:48.838Z,63619.40
2023-04-20T00:27:50.889Z,63634.76
2023-04-20T00:28:53.985Z,63633.01
2023-04-20T00:29:56.167Z,63618.73
2023-04-20T00:30:58.188Z,63623.13
2023-04-20T00:32:02.294Z,63630.70
2023-04-20T00:33:04.268Z,63597.87
2023-04-20T00:34:06.385Z,63597.87
2023-04-20T00:35:09.284Z,63607.64
2023-04-20T00:36:12.033Z,63597.87
2023-04-20T00:37:14.332Z,63614.77
2023-04-20T00:38:16.606Z,63614.46
2023-04-20T00:39:18.740Z,63624.88
2023-04-20T00:40:20.964Z,63617.52
2023-04-20T00:41:23.428Z,63620.50
2023-04-20T00:42:25.313Z,63629.15
2023-04-20T00:43:27.297Z,63616.11
2023-04-20T00:44:29.166Z,63628.61
2023-04-20T00:45:31.025Z,63621.17
2023-04-20T00:46:33.821Z,63621.92
2023-04-20T00:47:35.895Z,63604.48
2023-04-20T00:48:37.947Z,63605.69
2023-04-20T00:49:41.705Z,63603.93
2023-04-20T00:50:44.315Z,63603.93
2023-04-20T00:51:46.310Z,63597.64
2023-04-20T00:52:48.319Z,63581.84
2023-04-20T00:53:50.444Z,63596.66
2023-04-20T00:54:52.730Z,63598.98
2023-04-20T00:55:55.103Z,63602.27
2023-04-20T00:56:58.912Z,63599.83
2023-04-20T00:58:01.408Z,63583.18
2023-04-20T00:59:03.341Z,63598.98
2023-04-20T01:00:07.323Z,63594.89
2023-04-20T01:01:14.670Z,63598.98
2023-04-20T01:02:18.074Z,63586.79
2023-04-20T01:03:20.542Z,63587.99
2023-04-20T01:04:23.853Z,63577.93
2023-04-20T01:05:27.843Z,63587.76
2023-04-20T01:06:30.412Z,63603.12
2023-04-20T01:07:32.371Z,63583.62
2023-04-20T01:08:34.233Z,63589.95
2023-04-20T01:09:39.321Z,63576.18
2023-04-20T01:10:41.585Z,63576.18
2023-04-20T01:11:45.449Z,63585.37
2023-04-20T01:12:47.454Z,63587.99
2023-04-20T01:13:49.399Z,63587.45
2023-04-20T01:14:51.615Z,63587.58
2023-04-20T01:15:56.429Z,63593.73
2023-04-20T01:16:59.377Z,63596.79
2023-04-20T01:18:01.467Z,63598.07
2023-04-20T01:19:03.587Z,63599.52
2023-04-20T01:20:11.195Z,63582.52
2023-04-20T01:21:16.563Z,63582.52
2023-04-20T01:23:34.081Z,63585.80
2023-04-20T01:24:36.016Z,63589.54
2023-04-20T01:25:38.361Z,63582.52
2023-04-20T01:26:40.581Z,63587.89
2023-04-20T01:27:43.166Z,63583.62
2023-04-20T01:28:45.643Z,63585.80
2023-04-20T01:29:47.673Z,63580.45
2023-04-20T01:30:49.662Z,63586.35
2023-04-20T01:31:51.608Z,63584.05
2023-04-20T01:32:53.722Z,63585.80
2023-04-20T01:33:55.821Z,63590.20
2023-04-20T01:34:58.484Z,63596.79
2023-04-20T01:36:00.455Z,63596.79
2023-04-20T01:37:02.963Z,63594.58
2023-04-20T01:38:05.838Z,63590.08
2023-04-20T01:39:10.443Z,63576.49
2023-04-20T01:40:14.220Z,63584.05
2023-04-20T01:41:18.334Z,63583.39
2023-04-20T01:42:21.604Z,63585.37
2023-04-20T01:43:24.124Z,63586.35
2023-04-20T01:44:26.279Z,63582.52
2023-04-20T01:45:28.151Z,63595.02
2023-04-20T01:46:30.215Z,63573.20
2023-04-20T01:47:33.293Z,63583.80
2023-04-20T01:48:35.254Z,63586.24
2023-04-20T01:49:37.243Z,63596.79
2023-04-20T01:50:39.321Z,63591.72
2023-04-20T01:51:41.188Z,63586.35
2023-04-20T01:52:43.048Z,63601.70
2023-04-20T01:53:44.930Z,63589.41
2023-04-20T01:54:47.002Z,63589.10
2023-04-20T01:55:49.585Z,63578.81
2023-04-20T01:56:51.856Z,63592.39
2023-04-20T01:57:53.824Z,63604.33
2023-04-20T01:58:55.785Z,63581.43
2023-04-20T01:59:57.693Z,63595.45
2023-04-20T02:01:02.625Z,63601.16
2023-04-20T02:02:05.776Z,63599.95
2023-04-20T02:03:07.967Z,63587.99
2023-04-20T02:04:10.175Z,63578.37
2023-04-20T02:05:12.322Z,63585.80
2023-04-20T02:06:14.423Z,63584.29
2023-04-20T02:07:17.619Z,63591.29
2023-04-20T02:08:20.090Z,63588.66
2023-04-20T02:09:21.950Z,63595.99
2023-04-20T02:10:24.161Z,63590.51
2023-04-20T02:11:26.119Z,63592.83
2023-04-20T02:12:28.098Z,63592.83
2023-04-20T02:13:29.953Z,63592.83
2023-04-20T02:14:31.812Z,63588.87
2023-04-20T02:15:34.092Z,63591.59
2023-04-20T02:16:36.381Z,63594.35
2023-04-20T02:17:38.394Z,63598.31
2023-04-20T02:18:41.661Z,63579.22
2023-04-20T02:19:43.805Z,63577.70
2023-04-20T02:20:46.540Z,63584.05
2023-04-20T02:21:48.554Z,63575.70
2023-04-20T02:22:50.489Z,63573.74
2023-04-20T02:23:52.704Z,63578.14
2023-04-20T02:24:55.579Z,63583.73
2023-04-20T02:25:57.556Z,63588.55
2023-04-20T02:26:59.702Z,63573.07
2023-04-20T02:28:01.704Z,63580.09
2023-04-20T02:29:04.755Z,63580.09
2023-04-20T02:30:07.640Z,63574.85
2023-04-20T02:31:09.941Z,63582.95
2023-04-20T02:32:11.915Z,63584.70
2023-04-20T02:33:14.119Z,63588.32
2023-04-20T02:34:16.182Z,63580.32
2023-04-20T02:35:18.779Z,63583.62
2023-04-20T02:36:21.052Z,63574.85
2023-04-20T02:37:22.918Z,63579.66
2023-04-20T02:38:24.792Z,63586.35
2023-04-20T02:39:26.718Z,63573.74
2023-04-20T02:40:28.705Z,63571.55
2023-04-20T02:41:30.584Z,63569.79
2023-04-20T02:42:32.490Z,63570.09
2023-04-20T02:43:34.476Z,63569.37
2023-04-20T02:44:36.478Z,63576.36
2023-04-20T02:45:38.348Z,63580.09
2023-04-20T02:46:41.595Z,63580.09
2023-04-20T02:47:44.880Z,63570.99
2023-04-20T02:48:46.920Z,63579.22
2023-04-20T02:49:48.978Z,63582.52
2023-04-20T02:50:54.669Z,63590.75
2023-04-20T02:51:56.743Z,63581.54
2023-04-20T02:52:58.624Z,63581.43
2023-04-20T02:54:00.642Z,63570.99
2023-04-20T02:55:02.924Z,63567.59
2023-04-20T02:56:05.283Z,63574.95
2023-04-20T02:57:07.403Z,63572.64
2023-04-20T02:58:09.266Z,63568.93
2023-04-20T02:59:11.145Z,63572.64
2023-04-20T03:00:13.832Z,63587.32
2023-04-20T03:01:15.895Z,63570.45
2023-04-20T03:02:17.834Z,63568.80
2023-04-20T03:03:20.440Z,63576.49
2023-04-20T03:04:22.674Z,63587.89
2023-04-20T03:05:24.763Z,63588.55
2023-04-20T03:06:26.860Z,63564.97
2023-04-20T03:07:28.743Z,63574.85
2023-04-20T03:08:31.001Z,63585.27
2023-04-20T03:09:32.921Z,63596.12
2023-04-20T03:10:35.014Z,63575.93
2023-04-20T03:11:36.957Z,63589.54
2023-04-20T03:12:38.821Z,63593.24
2023-04-20T03:13:40.850Z,63593.91
2023-04-20T03:14:42.833Z,63568.26
2023-04-20T03:15:44.699Z,63588.43
2023-04-20T03:16:47.547Z,63586.91
2023-04-20T03:17:49.673Z,63594.58
2023-04-20T03:18:51.913Z,63575.39
2023-04-20T03:19:53.778Z,63583.07
2023-04-20T03:20:55.822Z,63567.83
2023-04-20T03:21:57.718Z,63583.62
2023-04-20T03:23:00.939Z,63586.91
2023-04-20T03:24:04.871Z,63583.07
2023-04-20T03:25:08.011Z,63589.10
2023-04-20T03:26:10.339Z,63576.36
2023-04-20T03:27:15.662Z,63593.50
2023-04-20T03:28:17.657Z,63575.39
2023-04-20T03:29:20.535Z,63592.83
2023-04-20T03:30:23.023Z,63571.79
2023-04-20T03:31:24.919Z,63574.29
2023-04-20T03:32:27.983Z,63584.47
2023-04-20T03:33:30.055Z,63575.93
2023-04-20T03:34:31.922Z,63584.70
2023-04-20T03:35:33.954Z,63594.16
2023-04-20T03:36:36.059Z,63592.39
2023-04-20T03:37:38.164Z,63586.91
2023-04-20T03:38:40.310Z,63589.54
2023-04-20T03:39:43.431Z,63593.80
2023-04-20T03:40:45.488Z,63583.85
2023-04-20T03:41:47.439Z,63575.93
2023-04-20T03:42:49.293Z,63572.64
2023-04-20T03:43:51.197Z,63574.85
2023-04-20T03:44:53.184Z,63572.64
2023-04-20T03:45:55.402Z,63568.26
2023-04-20T03:46:58.515Z,63573.74
2023-04-20T03:48:00.423Z,63562.22
2023-04-20T03:49:03.868Z,63579.22
2023-04-20T03:50:07.376Z,63585.37
2023-04-20T03:51:09.500Z,63586.48
2023-04-20T03:52:11.664Z,63591.85
2023-04-20T03:53:13.548Z,63593.06
2023-04-20T03:54:15.411Z,63591.29
2023-04-20T03:55:17.502Z,63598.98
2023-04-20T03:56:19.488Z,63608.87
2023-04-20T03:57:21.354Z,63609.96
2023-04-20T03:58:23.322Z,63606.66
2023-04-20T03:59:25.175Z,63608.87
2023-04-20T04:00:28.378Z,63606.66
2023-04-20T04:01:30.645Z,63600.33
2023-04-20T04:02:32.562Z,63600.06
2023-04-20T04:03:35.937Z,63606.12
2023-04-20T04:04:39.064Z,63602.04
2023-04-20T04:05:41.311Z,63600.06
2023-04-20T04:06:43.489Z,63599.83
2023-04-20T04:07:46.607Z,63594.35
2023-04-20T04:08:48.535Z,63590.75
2023-04-20T04:09:50.424Z,63581.66
2023-04-20T04:10:52.714Z,63591.29
2023-04-20T04:11:54.603Z,63582.08
2023-04-20T04:12:57.261Z,63581.84
2023-04-20T04:13:59.242Z,63590.62
2023-04-20T04:15:01.983Z,63585.37
2023-04-20T04:16:04.467Z,63589.95
2023-04-20T04:17:06.454Z,63580.76
2023-04-20T04:18:09.023Z,63576.49
2023-04-20T04:19:11.105Z,63562.12
2023-04-20T04:20:13.320Z,63569.24
2023-04-20T04:21:16.586Z,63567.83
2023-04-20T04:22:18.567Z,63584.29
2023-04-20T04:23:20.515Z,63586.12
2023-04-20T04:24:22.370Z,63572.64
2023-04-20T04:25:24.283Z,63573.74
2023-04-20T04:26:27.461Z,63580.32
2023-04-20T04:27:29.391Z,63578.14
2023-04-20T04:28:31.347Z,63576.80
2023-04-20T04:29:33.536Z,63586.24
2023-04-20T04:30:35.492Z,63588.87
2023-04-20T04:31:37.388Z,63582.08
2023-04-20T04:32:39.949Z,63575.82
2023-04-20T04:33:43.099Z,63559.49
2023-04-20T04:34:44.949Z,63569.37
2023-04-20T04:35:46.913Z,63563.87
2023-04-20T04:36:49.730Z,63564.74
2023-04-20T04:37:51.786Z,63568.26
2023-04-20T04:38:53.734Z,63565.64
2023-04-20T04:39:55.607Z,63561.55
2023-04-20T04:40:59.807Z,63569.79
2023-04-20T04:42:03.650Z,63563.20
2023-04-20T04:43:05.512Z,63567.72
2023-04-20T04:44:07.476Z,63561.81
2023-04-20T04:45:11.251Z,63567.83
2023-04-20T04:46:13.325Z,63566.08
2023-04-20T04:47:15.390Z,63570.99
2023-04-20T04:48:17.439Z,63538.66
2023-04-20T04:49:19.791Z,63536.59
2023-04-20T04:50:22.349Z,63533.17
2023-04-20T04:51:24.496Z,63525.50
2023-04-20T04:52:27.540Z,63549.08
2023-04-20T04:53:29.901Z,63524.96
2023-04-20T04:54:31.940Z,63527.69
2023-04-20T04:55:33.813Z,63516.74
2023-04-20T04:56:35.898Z,63540.85
2023-04-20T04:57:38.061Z,63516.74
2023-04-20T04:58:40.033Z,63525.50
2023-04-20T04:59:41.987Z,63518.38
2023-04-20T05:00:44.413Z,63520.44
2023-04-20T05:01:46.532Z,63511.13
2023-04-20T05:02:48.859Z,63506.87
2023-04-20T05:03:51.040Z,63532.93
2023-04-20T05:04:53.111Z,63511.67
2023-04-20T05:05:55.339Z,63510.59
2023-04-20T05:06:57.452Z,63494.27
2023-04-20T05:07:59.489Z,63508.38
2023-04-20T05:09:01.356Z,63500.29
2023-04-20T05:10:04.962Z,63499.75
2023-04-20T05:11:06.953Z,63493.17
2023-04-20T05:12:09.167Z,63519.36
2023-04-20T05:13:11.033Z,63483.97
2023-04-20T05:14:13.660Z,63466.87
2023-04-20T05:15:15.563Z,63506.63
2023-04-20T05:16:17.978Z,63500.83
2023-04-20T05:17:20.121Z,63497.00
2023-04-20T05:18:22.173Z,63488.47
2023-04-20T05:19:24.173Z,63483.97
2023-04-20T05:20:26.249Z,63489.34
2023-04-20T05:21:28.148Z,63508.28
2023-04-20T05:22:30.016Z,63480.01
2023-04-20T05:23:31.998Z,63488.77
2023-04-20T05:24:33.869Z,63492.50
2023-04-20T05:25:36.985Z,63484.84
2023-04-20T05:26:39.136Z,63475.64
2023-04-20T05:27:42.330Z,63471.38
2023-04-20T05:28:44.728Z,63473.56
2023-04-20T05:29:47.659Z,63498.54
2023-04-20T05:30:49.746Z,63471.25
2023-04-20T05:31:51.895Z,63469.73
2023-04-20T05:32:54.243Z,63473.32
2023-04-20T05:33:56.395Z,63485.38
2023-04-20T05:34:58.365Z,63461.14
2023-04-20T05:36:00.376Z,63479.90
2023-04-20T05:37:04.058Z,63460.84
2023-04-20T05:38:06.273Z,63458.96
2023-04-20T05:39:08.379Z,63438.93
2023-04-20T05:40:13.683Z,63454.93
2023-04-20T05:41:15.838Z,63459.50
2023-04-20T05:42:17.795Z,63457.98
2023-04-20T05:43:19.683Z,63463.82
2023-04-20T05:44:21.846Z,63471.55
2023-04-20T05:45:23.869Z,63464.43
2023-04-20T05:46:26.141Z,63456.21
2023-04-20T05:47:28.351Z,63453.85
2023-04-20T05:48:30.440Z,63463.02
2023-04-20T05:49:32.571Z,63452.75
2023-04-20T05:50:34.622Z,63454.70
2023-04-20T05:51:36.648Z,63471.01
2023-04-20T05:52:38.615Z,63448.36
2023-04-20T05:53:41.650Z,63451.64
2023-04-20T05:54:43.502Z,63464.43
2023-04-20T05:55:45.346Z,63472.89
2023-04-20T05:56:49.582Z,63463.02
2023-04-20T05:57:52.046Z,63475.51
2023-04-20T05:58:55.338Z,63465.95
2023-04-20T05:59:57.235Z,63466.31
2023-04-20T06:00:59.291Z,63485.92
2023-04-20T06:02:01.342Z,63471.14
2023-04-20T06:03:03.623Z,63476.61
2023-04-20T06:04:05.958Z,63477.03
2023-04-20T06:05:09.700Z,63475.08
2023-04-20T06:06:12.127Z,63476.18
2023-04-20T06:07:13.988Z,63459.32
2023-04-20T06:08:16.244Z,63471.25
2023-04-20T06:09:18.430Z,63460.84
2023-04-20T06:10:23.472Z,63472.22
2023-04-20T06:11:25.376Z,63492.62
2023-04-20T06:12:28.132Z,63491.52
2023-04-20T06:13:31.293Z,63486.59
2023-04-20T06:14:35.279Z,63506.99
2023-04-20T06:15:37.192Z,63504.01
2023-04-20T06:16:40.935Z,63489.75
2023-04-20T06:17:43.059Z,63481.66
2023-04-20T06:18:45.296Z,63481.66
2023-04-20T06:19:47.368Z,63502.37
2023-04-20T06:20:49.546Z,63512.34
2023-04-20T06:21:53.692Z,63513.99
2023-04-20T06:22:56.748Z,63510.70
2023-04-20T06:23:58.742Z,63512.34
2023-04-20T06:25:01.808Z,63520.03
2023-04-20T06:26:04.961Z,63508.51
2023-04-20T06:27:07.510Z,63512.11
2023-04-20T06:28:09.411Z,63518.79
2023-04-20T06:29:11.274Z,63529.87
2023-04-20T06:30:14.609Z,63532.63
2023-04-20T06:31:18.336Z,63524.53
2023-04-20T06:32:22.373Z,63528.12
2023-04-20T06:33:24.548Z,63533.73
2023-04-20T06:34:26.393Z,63561.45
2023-04-20T06:35:28.796Z,63537.56
2023-04-20T06:36:30.886Z,63541.93
2023-04-20T06:37:34.920Z,63539.39
2023-04-20T06:38:37.125Z,63533.17
2023-04-20T06:39:39.156Z,63528.90
2023-04-20T06:40:41.265Z,63535.37
2023-04-20T06:41:43.610Z,63545.23
2023-04-20T06:42:45.507Z,63541.93
2023-04-20T06:43:47.521Z,63541.52
2023-04-20T06:44:49.372Z,63567.59
2023-04-20T06:45:51.251Z,63564.74
2023-04-20T06:46:53.383Z,63556.87
2023-04-20T06:47:55.394Z,63561.25
2023-04-20T06:48:57.571Z,63564.97
2023-04-20T06:50:05.099Z,63553.89
2023-04-20T06:51:07.141Z,63552.91
2023-04-20T06:52:09.522Z,63561.14
2023-04-20T06:53:11.413Z,63569.68
2023-04-20T06:54:13.326Z,63561.14
2023-04-20T06:55:18.352Z,63584.05
2023-04-20T06:56:21.825Z,63575.93
2023-04-20T06:57:23.732Z,63579.12
2023-04-20T06:58:26.139Z,63577.04
2023-04-20T06:59:28.010Z,63586.35
2023-04-20T07:00:30.989Z,63570.76
2023-04-20T07:01:33.005Z,63568.93
2023-04-20T07:02:46.917Z,63575.26
2023-04-20T07:03:49.143Z,63591.29
2023-04-20T07:04:51.395Z,63582.28
2023-04-20T07:05:53.467Z,63592.16
2023-04-20T07:06:55.566Z,63592.39
2023-04-20T07:07:57.724Z,63591.29
2023-04-20T07:09:00.325Z,63609.96
2023-04-20T07:10:02.425Z,63595.14
2023-04-20T07:11:04.661Z,63580.32
2023-04-20T07:12:10.634Z,63597.87
2023-04-20T07:13:12.794Z,63610.08
2023-04-20T07:14:14.651Z,63606.66
2023-04-20T07:15:18.792Z,63611.06
2023-04-20T07:16:21.532Z,63611.06
2023-04-20T07:17:28.109Z,63607.64
2023-04-20T07:18:30.221Z,63616.42
2023-04-20T07:19:32.245Z,63614.89
2023-04-20T07:20:35.534Z,63619.84
2023-04-20T07:21:37.422Z,63616.00
2023-04-20T07:22:39.471Z,63624.54
2023-04-20T07:23:43.305Z,63605.14
2023-04-20T07:24:45.445Z,63610.52
2023-04-20T07:25:47.444Z,63615.87
2023-04-20T07:26:49.421Z,63618.73
2023-04-20T07:27:51.432Z,63633.43
2023-04-20T07:28:53.836Z,63619.84
2023-04-20T07:29:58.406Z,63617.75
2023-04-20T07:31:01.089Z,63631.78
2023-04-20T07:32:03.860Z,63624.77
2023-04-20T07:33:05.905Z,63633.99
2023-04-20T07:34:07.974Z,63623.67
2023-04-20T07:35:10.477Z,63636.84
2023-04-20T07:36:12.791Z,63634.09
2023-04-20T07:37:14.771Z,63641.34
2023-04-20T07:38:17.453Z,63646.72
2023-04-20T07:39:19.665Z,63648.37
2023-04-20T07:40:23.286Z,63629.71
2023-04-20T07:41:25.317Z,63640.68
2023-04-20T07:42:28.446Z,63650.02
2023-04-20T07:43:30.331Z,63636.72
2023-04-20T07:44:32.226Z,63635.74
2023-04-20T07:45:34.233Z,63638.49
2023-04-20T07:46:36.352Z,63639.47
2023-04-20T07:47:38.470Z,63637.38
2023-04-20T07:48:40.602Z,63640.68
2023-04-20T07:49:43.515Z,63643.30
2023-04-20T07:50:46.237Z,63638.59
2023-04-20T07:51:48.382Z,63642.22
2023-04-20T07:52:51.510Z,63634.53
2023-04-20T07:53:53.533Z,63633.01
2023-04-20T07:54:56.642Z,63602.27
2023-04-20T07:55:58.631Z,63605.58
2023-04-20T07:57:01.723Z,63604.04
2023-04-20T07:58:03.696Z,63576.24
2023-04-20T07:59:05.591Z,63586.91
2023-04-20T08:00:11.750Z,63591.29
2023-04-20T08:01:14.880Z,63597.64
2023-04-20T08:02:17.007Z,63571.55
2023-04-20T08:03:20.343Z,63572.22
2023-04-20T08:04:22.876Z,63580.32
2023-04-20T08:05:25.342Z,63554.87
2023-04-20T08:06:28.629Z,63559.37
2023-04-20T08:07:30.729Z,63562.12
2023-04-20T08:08:32.623Z,63561.68
2023-04-20T08:09:34.801Z,63547.43
2023-04-20T08:10:36.821Z,63550.73
2023-04-20T08:11:38.727Z,63550.47
2023-04-20T08:12:41.705Z,63540.85
2023-04-20T08:13:44.295Z,63537.56
2023-04-20T08:14:46.143Z,63553.14
2023-04-20T08:15:48.033Z,63531.29
2023-04-20T08:16:50.162Z,63531.29
2023-04-20T08:17:52.088Z,63516.74
2023-04-20T08:18:53.976Z,63514.53
2023-04-20T08:19:55.858Z,63523.73
2023-04-20T08:20:58.082Z,63521.98
2023-04-20T08:22:00.698Z,63532.09
2023-04-20T08:23:03.646Z,63526.35
2023-04-20T08:24:07.558Z,63525.38
2023-04-20T08:25:09.501Z,63543.47
2023-04-20T08:26:16.402Z,63525.61
2023-04-20T08:27:18.417Z,63513.45
2023-04-20T08:28:32.869Z,63530.98
2023-04-20T08:29:25.450Z,63506.07
2023-04-20T08:30:27.670Z,63516.30
2023-04-20T08:31:29.583Z,63521.00
2023-04-20T08:32:31.647Z,63506.87
2023-04-20T08:33:33.719Z,63518.25
2023-04-20T08:34:35.821Z,63522.09
2023-04-20T08:35:38.358Z,63538.54
2023-04-20T08:36:42.094Z,63513.45
2023-04-20T08:37:43.984Z,63499.20
2023-04-20T08:38:46.165Z,63516.74
2023-04-20T08:39:48.081Z,63530.75
2023-04-20T08:40:50.103Z,63524.40
2023-04-20T08:41:52.460Z,63521.11
2023-04-20T08:42:54.408Z,63524.71
2023-04-20T08:43:56.374Z,63500.18
2023-04-20T08:45:00.285Z,63519.23
2023-04-20T08:46:03.345Z,63516.84
2023-04-20T08:47:05.931Z,63519.46
2023-04-20T08:48:10.485Z,63526.91
2023-04-20T08:49:14.761Z,63526.91
2023-04-20T08:50:19.299Z,63522.21
2023-04-20T08:51:23.379Z,63520.03
2023-04-20T08:52:25.314Z,63534.27
2023-04-20T08:53:27.363Z,63542.37
2023-04-20T08:54:30.482Z,63528.79
2023-04-20T08:55:32.336Z,63524.40
2023-04-20T08:56:36.359Z,63529.34
2023-04-20T08:57:38.389Z,63542.37
2023-04-20T08:58:40.282Z,63523.06
2023-04-20T08:59:42.180Z,63523.32
2023-04-20T09:00:48.478Z,63528.66
2023-04-20T09:01:50.830Z,63520.57
2023-04-20T09:02:56.042Z,63526.04
2023-04-20T09:03:59.484Z,63525.50
2023-04-20T09:05:04.139Z,63534.81
2023-04-20T09:06:16.048Z,63521.11
2023-04-20T09:07:19.983Z,63527.46
2023-04-20T09:08:40.056Z,63516.07
2023-04-20T09:09:53.411Z,63523.32
2023-04-20T09:10:55.452Z,63522.65
2023-04-20T09:12:07.240Z,63535.79
2023-04-20T09:13:21.828Z,63543.04
2023-04-20T09:14:23.881Z,63532.63
2023-04-20T09:15:31.321Z,63524.96
2023-04-20T09:16:35.178Z,63524.96
2023-04-20T09:17:39.294Z,63531.52
2023-04-20T09:18:45.053Z,63540.31
2023-04-20T09:19:52.384Z,63536.89
2023-04-20T09:20:54.523Z,63546.77
2023-04-20T09:21:58.846Z,63554.32
2023-04-20T09:23:16.212Z,63538.23
2023-04-20T09:24:23.461Z,63550.05
2023-04-20T09:25:26.147Z,63553.58
2023-04-20T09:26:33.794Z,63541.93
2023-04-20T09:27:36.313Z,63541.93
2023-04-20T09:28:38.459Z,63547.97
2023-04-20T09:29:40.961Z,63556.75
2023-04-20T09:30:47.454Z,63560.04
2023-04-20T09:31:50.061Z,63551.81
2023-04-20T09:33:02.658Z,63562.12
2023-04-20T09:34:05.977Z,63558.16
2023-04-20T09:35:08.741Z,63564.97
2023-04-20T09:36:11.850Z,63557.29
2023-04-20T09:37:17.099Z,63565.41
2023-04-20T09:38:22.763Z,63564.97
2023-04-20T09:39:24.690Z,63574.85
2023-04-20T09:40:27.581Z,63583.62
2023-04-20T09:41:31.559Z,63575.93
2023-04-20T09:42:37.901Z,63586.35
2023-04-20T09:43:41.597Z,63597.87
2023-04-20T09:44:45.781Z,63603.35
2023-04-20T09:45:48.213Z,63602.39
2023-04-20T09:46:51.877Z,63604.60
2023-04-20T09:47:54.627Z,63601.31
2023-04-20T09:49:02.183Z,63612.14
2023-04-20T09:50:19.480Z,63617.65
2023-04-20T09:51:12.834Z,63616.00
2023-04-20T09:53:33.797Z,63621.48
2023-04-20T09:54:37.442Z,63630.80
2023-04-20T09:55:40.401Z,63636.30
2023-04-20T09:56:42.998Z,63637.38
2023-04-20T09:57:45.060Z,63636.30
2023-04-20T09:58:47.366Z,63619.84
2023-04-20T09:59:52.706Z,63641.79
2023-04-20T10:00:55.626Z,63629.15
2023-04-20T10:01:58.207Z,63623.13
2023-04-20T10:03:00.602Z,63617.21
2023-04-20T10:04:10.396Z,63626.19
2023-04-20T10:05:13.220Z,63618.73
2023-04-20T10:06:24.193Z,63621.48
2023-04-20T10:07:31.061Z,63625.21
2023-04-20T10:08:40.718Z,63626.42
2023-04-20T10:09:42.732Z,63613.37
2023-04-20T10:10:47.624Z,63617.65
2023-04-20T10:11:53.979Z,63618.86
2023-04-20T10:12:55.877Z,63624.23
2023-04-20T10:13:59.415Z,63608.00
2023-04-20T10:15:01.474Z,63613.79
2023-04-20T10:16:03.952Z,63618.31
2023-04-20T10:17:09.548Z,63625.55
2023-04-20T10:19:41.801Z,63641.79
2023-04-20T10:20:44.034Z,63640.01
2023-04-20T10:21:48.406Z,63664.59
2023-04-20T10:22:58.028Z,63654.39
2023-04-20T10:24:01.346Z,63661.52
2023-04-20T10:25:08.744Z,63659.88
2023-04-20T10:26:11.292Z,63654.94
2023-04-20T10:27:20.656Z,63662.20
2023-04-20T10:28:22.771Z,63661.96
2023-04-20T10:29:26.379Z,63660.00
2023-04-20T10:30:28.927Z,63670.64
2023-04-20T10:31:38.707Z,63657.15
2023-04-20T10:32:40.787Z,63648.25
2023-04-20T10:33:54.049Z,63647.81
2023-04-20T10:35:12.786Z,63651.00
2023-04-20T10:36:24.307Z,63655.27
2023-04-20T10:37:27.121Z,63652.21
2023-04-20T10:38:35.014Z,63631.90
2023-04-20T10:39:45.701Z,63642.87
2023-04-20T10:40:47.769Z,63643.97
2023-04-20T10:41:55.320Z,63637.38
2023-04-20T10:42:57.456Z,63641.79
2023-04-20T10:44:09.684Z,63640.14
2023-04-20T10:45:12.627Z,63645.62
2023-04-20T10:46:23.563Z,63646.83
2023-04-20T10:47:30.990Z,63636.97
2023-04-20T10:48:34.141Z,63632.45
2023-04-20T10:49:36.015Z,63633.55
2023-04-20T10:50:38.503Z,63631.36
2023-04-20T10:51:51.689Z,63629.71
2023-04-20T10:52:53.936Z,63629.48
2023-04-20T10:54:02.016Z,63616.54
2023-04-20T10:55:06.234Z,63614.35
2023-04-20T10:56:08.476Z,63605.14
2023-04-20T10:57:14.119Z,63633.99
2023-04-20T10:58:24.119Z,63638.26
2023-04-20T10:59:28.541Z,63625.88
2023-04-20T11:00:30.657Z,63624.23
2023-04-20T11:01:32.880Z,63628.61
2023-04-20T11:02:35.078Z,63632.34
2023-04-20T11:03:41.215Z,63635.20
2023-04-20T11:04:43.372Z,63638.36
2023-04-20T11:05:49.144Z,63644.95
2023-04-20T11:06:51.184Z,63640.24
2023-04-20T11:07:56.041Z,63650.56
2023-04-20T11:08:58.130Z,63650.02
2023-04-20T11:10:00.012Z,63638.29
2023-04-20T11:11:02.058Z,63636.53
2023-04-20T11:12:10.184Z,63644.41
2023-04-20T11:13:22.706Z,63628.17
2023-04-20T11:14:25.810Z,63636.30
2023-04-20T11:15:34.210Z,63652.75
2023-04-20T11:16:49.572Z,63642.45
2023-04-20T11:17:42.157Z,63647.81
2023-04-20T11:18:52.813Z,63652.52
2023-04-20T11:19:58.869Z,63649.45
2023-04-20T11:21:00.887Z,63645.18
2023-04-20T11:22:04.765Z,63647.27
2023-04-20T11:23:06.720Z,63656.04
2023-04-20T11:24:23.097Z,63652.21
2023-04-20T11:25:25.583Z,63661.52
2023-04-20T11:26:36.539Z,63648.91
2023-04-20T11:27:39.109Z,63659.34
2023-04-20T11:28:56.030Z,63658.23
2023-04-20T11:29:58.076Z,63642.45
2023-04-20T11:31:00.423Z,63653.86
2023-04-20T11:32:05.181Z,63657.56
2023-04-20T11:33:08.185Z,63656.58
2023-04-20T11:34:18.328Z,63671.95
2023-04-20T11:35:20.604Z,63662.63
2023-04-20T11:36:23.921Z,63675.25
2023-04-20T11:37:27.245Z,63673.18
2023-04-20T11:38:31.372Z,63679.10
2023-04-20T11:39:33.980Z,63676.35
2023-04-20T11:40:36.301Z,63691.59
2023-04-20T11:41:38.343Z,63691.72
2023-04-20T11:42:40.380Z,63682.94
2023-04-20T11:43:42.501Z,63682.38
2023-04-20T11:44:45.924Z,63687.21
2023-04-20T11:45:47.874Z,63691.72
2023-04-20T11:46:50.021Z,63698.18
2023-04-20T11:47:51.900Z,63705.88
2023-04-20T11:48:53.942Z,63706.86
2023-04-20T11:49:55.841Z,63706.42
2023-04-20T11:50:58.958Z,63695.68
2023-04-20T11:52:00.955Z,63701.61
2023-04-20T11:53:02.814Z,63691.18
2023-04-20T11:54:04.813Z,63689.53
2023-04-20T11:55:08.180Z,63697.75
2023-04-20T11:56:12.047Z,63692.26
2023-04-20T11:57:13.892Z,63696.22
2023-04-20T11:58:15.823Z,63691.18
2023-04-20T11:59:20.791Z,63706.86
2023-04-20T12:00:23.566Z,63698.62
2023-04-20T12:01:25.567Z,63697.20
2023-04-20T12:02:27.495Z,63698.31
2023-04-20T12:03:29.735Z,63699.83
2023-04-20T12:04:32.437Z,63688.96
2023-04-20T12:05:34.610Z,63691.84
2023-04-20T12:06:37.830Z,63692.93
2023-04-20T12:07:39.694Z,63698.31
2023-04-20T12:08:41.535Z,63698.31
2023-04-20T12:09:43.431Z,63701.04
2023-04-20T12:10:45.606Z,63696.66
2023-04-20T12:11:47.676Z,63719.71
2023-04-20T12:12:49.539Z,63720.81
2023-04-20T12:13:51.934Z,63724.11
2023-04-20T12:14:55.032Z,63719.52
2023-04-20T12:15:57.072Z,63717.52
2023-04-20T12:17:06.067Z,63713.55
2023-04-20T12:18:08.328Z,63718.18
2023-04-20T12:19:10.395Z,63720.37
2023-04-20T12:20:13.187Z,63732.35
2023-04-20T12:21:15.264Z,63738.38
2023-04-20T12:22:17.240Z,63740.03
2023-04-20T12:23:19.112Z,63732.89
2023-04-20T12:24:21.180Z,63742.22
2023-04-20T12:25:23.046Z,63733.66